Orlando, FL

3:29 PM EDT on April 24, 2017 (GMT -0400)
WFTV, Channel 9 | | Change Station

Elev 92 ft 28.54 °N, 81.37 °W | Updated 3 seconds ago

Partly Cloudy
Partly Cloudy
81.1 °F
Feels Like 82 °F
N
8.4
Wind Variable Wind from WNW
Gusts 12.0 mph

Today
High -- | Low -- °F
--% Chance of Precip.
Yesterday
High -- | Low -- °F
Precip. -- in
Pressure 29.69 in
Visibility 10.0 miles
Clouds Few 4500 ft
Heat Index 82 °F
Dew Point 59 °F
Humidity 48%
Rainfall 0.00 in
Snow Depth Not available.
6:50 AM 7:56 PM
Waning Crescent, 4% visible
METAR KORL 241853Z 25017G28KT 10SM FEW045 29/15 A2968 RMK AO2 PK WND 23028/1844 RAB24E37 SLP054 P0000 T02940150
Pressure 29.69 in
Visibility 10.0 miles
Clouds Few 4500 ft
Heat Index 82 °F
Dew Point 59 °F
Humidity 48%
Rainfall 0.00 in
Snow Depth Not available.
6:50 AM 7:56 PM
Waning Crescent, 4% visible
METAR KORL 241853Z 25017G28KT 10SM FEW045 29/15 A2968 RMK AO2 PK WND 23028/1844 RAB24E37 SLP054 P0000 T02940150

Get Severe Weather Alerts

Thanks for signing up!

Be on the lookout for a verification email in your inbox.

You'll start receiving the daily forecast at 8 AM.

×

10-Day Weather Forecast

Almanac

Astronomy

Apr. 24, 2017 Rise Set
Actual Time
Civil Twilight
Nautical Twilight
Astronomical Twilight
Moon
Length of Visible Light
Length of Day
Tomorrow will be .
, % of the Moon is Illuminated

Today's Extremes

State Highs State Lows

Community

WunderPhotos

WunderBlog® & News

Nearby

Air Quality

  Air Quality AQ Index Pollutant
Not available.

Snow Depth

Station Depth Elevation

Earthquake Activity

City Distance Mag. Time & Date
Minimum magnitude displayed is 2.5.

Coastal Water Temperatures

Place Temperature

Stations

Nearby Weather Stations

Station Location Temp. Windchill Dew Point Humidity Wind Precip. Elev Updated Type
                   

Watches & Warnings

There are currently no watches in effect.